sensor_id;sensor_type;location;lat;lon;timestamp;temperature;humidity
7002;DHT22;3541;53.230;10.518;2022-10-03T00:01:11;12.50;99.90
7002;DHT22;3541;53.230;10.518;2022-10-03T00:03:51;12.50;99.90
7002;DHT22;3541;53.230;10.518;2022-10-03T00:06:31;12.50;99.90
7002;DHT22;3541;53.230;10.518;2022-10-03T00:09:12;12.40;99.90
7002;DHT22;3541;53.230;10.518;2022-10-03T00:11:55;12.30;99.90
7002;DHT22;3541;53.230;10.518;2022-10-03T00:14:32;12.30;99.90
7002;DHT22;3541;53.230;10.518;2022-10-03T00:17:07;12.30;99.90
7002;DHT22;3541;53.230;10.518;2022-10-03T00:19:41;12.40;99.90
7002;DHT22;3541;53.230;10.518;2022-10-03T00:22:21;12.50;99.90
7002;DHT22;3541;53.230;10.518;2022-10-03T00:25:02;12.40;99.90
7002;DHT22;3541;53.230;10.518;2022-10-03T00:27:35;12.40;99.90
7002;DHT22;3541;53.230;10.518;2022-10-03T00:30:12;12.40;99.90
7002;DHT22;3541;53.230;10.518;2022-10-03T00:32:50;12.50;99.90
7002;DHT22;3541;53.230;10.518;2022-10-03T00:35:33;12.50;99.90
7002;DHT22;3541;53.230;10.518;2022-10-03T00:38:20;12.50;99.90
7002;DHT22;3541;53.230;10.518;2022-10-03T00:41:11;12.40;99.90
7002;DHT22;3541;53.230;10.518;2022-10-03T00:44:02;12.40;99.90
7002;DHT22;3541;53.230;10.518;2022-10-03T00:47:00;12.40;99.90
7002;DHT22;3541;53.230;10.518;2022-10-03T00:49:49;12.30;99.90
7002;DHT22;3541;53.230;10.518;2022-10-03T00:52:33;12.30;99.90
7002;DHT22;3541;53.230;10.518;2022-10-03T00:55:10;12.50;99.90
7002;DHT22;3541;53.230;10.518;2022-10-03T00:57:55;12.40;99.90
7002;DHT22;3541;53.230;10.518;2022-10-03T01:00:26;12.30;99.90
7002;DHT22;3541;53.230;10.518;2022-10-03T01:03:21;12.40;99.90
7002;DHT22;3541;53.230;10.518;2022-10-03T01:06:00;12.40;99.90
7002;DHT22;3541;53.230;10.518;2022-10-03T01:08:56;12.40;99.90
7002;DHT22;3541;53.230;10.518;2022-10-03T01:11:37;12.40;99.90
7002;DHT22;3541;53.230;10.518;2022-10-03T01:14:19;12.30;99.90
7002;DHT22;3541;53.230;10.518;2022-10-03T01:16:58;12.30;99.90
7002;DHT22;3541;53.230;10.518;2022-10-03T01:19:54;12.30;99.90
7002;DHT22;3541;53.230;10.518;2022-10-03T01:22:52;12.40;99.90
7002;DHT22;3541;53.230;10.518;2022-10-03T01:25:35;12.30;99.90
7002;DHT22;3541;53.230;10.518;2022-10-03T01:28:22;12.40;99.90
7002;DHT22;3541;53.230;10.518;2022-10-03T01:31:08;12.40;99.90
7002;DHT22;3541;53.230;10.518;2022-10-03T01:33:40;12.30;99.90
7002;DHT22;3541;53.230;10.518;2022-10-03T01:36:09;12.40;99.90
7002;DHT22;3541;53.230;10.518;2022-10-03T01:38:43;12.40;99.90
7002;DHT22;3541;53.230;10.518;2022-10-03T01:41:18;12.30;99.90
7002;DHT22;3541;53.230;10.518;2022-10-03T01:43:53;12.30;99.90
7002;DHT22;3541;53.230;10.518;2022-10-03T01:46:22;12.10;99.90
7002;DHT22;3541;53.230;10.518;2022-10-03T01:48:59;12.20;99.90
7002;DHT22;3541;53.230;10.518;2022-10-03T01:51:31;12.30;99.90
7002;DHT22;3541;53.230;10.518;2022-10-03T01:54:05;12.30;99.90
7002;DHT22;3541;53.230;10.518;2022-10-03T01:56:45;12.40;99.90
7002;DHT22;3541;53.230;10.518;2022-10-03T01:59:21;12.40;99.90
7002;DHT22;3541;53.230;10.518;2022-10-03T02:01:54;12.40;99.90
7002;DHT22;3541;53.230;10.518;2022-10-03T02:04:34;12.40;99.90
7002;DHT22;3541;53.230;10.518;2022-10-03T02:07:06;12.40;99.90
7002;DHT22;3541;53.230;10.518;2022-10-03T02:09:47;12.30;99.90
7002;DHT22;3541;53.230;10.518;2022-10-03T02:12:25;12.40;99.90
7002;DHT22;3541;53.230;10.518;2022-10-03T02:14:58;12.40;99.90
7002;DHT22;3541;53.230;10.518;2022-10-03T02:17:33;12.40;99.90
7002;DHT22;3541;53.230;10.518;2022-10-03T02:20:12;12.30;99.90
7002;DHT22;3541;53.230;10.518;2022-10-03T02:22:51;12.30;99.90
7002;DHT22;3541;53.230;10.518;2022-10-03T02:25:24;12.30;99.90
7002;DHT22;3541;53.230;10.518;2022-10-03T02:28:17;12.30;99.90
7002;DHT22;3541;53.230;10.518;2022-10-03T02:31:38;12.30;99.90
7002;DHT22;3541;53.230;10.518;2022-10-03T02:34:42;12.30;99.90
7002;DHT22;3541;53.230;10.518;2022-10-03T02:37:35;12.40;99.90
7002;DHT22;3541;53.230;10.518;2022-10-03T02:40:36;12.40;99.90
7002;DHT22;3541;53.230;10.518;2022-10-03T02:43:30;12.40;99.90
7002;DHT22;3541;53.230;10.518;2022-10-03T02:46:56;12.40;99.90
7002;DHT22;3541;53.230;10.518;2022-10-03T02:49:56;12.30;99.90
7002;DHT22;3541;53.230;10.518;2022-10-03T02:52:54;12.30;99.90
7002;DHT22;3541;53.230;10.518;2022-10-03T02:55:39;12.30;99.90
7002;DHT22;3541;53.230;10.518;2022-10-03T02:58:34;12.30;99.90
7002;DHT22;3541;53.230;10.518;2022-10-03T03:01:40;12.30;99.90
7002;DHT22;3541;53.230;10.518;2022-10-03T03:04:34;12.30;99.90
7002;DHT22;3541;53.230;10.518;2022-10-03T03:13:41;12.20;99.90
7002;DHT22;3541;53.230;10.518;2022-10-03T03:16:34;12.20;99.90
7002;DHT22;3541;53.230;10.518;2022-10-03T03:19:12;12.20;99.90
7002;DHT22;3541;53.230;10.518;2022-10-03T03:21:49;12.20;99.90
7002;DHT22;3541;53.230;10.518;2022-10-03T03:24:24;12.20;99.90
7002;DHT22;3541;53.230;10.518;2022-10-03T03:27:07;12.20;99.90
7002;DHT22;3541;53.230;10.518;2022-10-03T03:29:44;12.20;99.90
7002;DHT22;3541;53.230;10.518;2022-10-03T03:32:21;12.20;99.90
7002;DHT22;3541;53.230;10.518;2022-10-03T03:34:58;12.20;99.90
7002;DHT22;3541;53.230;10.518;2022-10-03T03:37:33;12.20;99.90
7002;DHT22;3541;53.230;10.518;2022-10-03T03:40:12;12.20;99.90
7002;DHT22;3541;53.230;10.518;2022-10-03T03:42:59;12.20;99.90
7002;DHT22;3541;53.230;10.518;2022-10-03T03:45:38;12.20;99.90
7002;DHT22;3541;53.230;10.518;2022-10-03T03:48:20;12.20;99.90
7002;DHT22;3541;53.230;10.518;2022-10-03T03:51:00;12.10;99.90
7002;DHT22;3541;53.230;10.518;2022-10-03T03:56:56;12.00;99.90
7002;DHT22;3541;53.230;10.518;2022-10-03T03:59:38;11.90;99.90
7002;DHT22;3541;53.230;10.518;2022-10-03T04:02:18;11.90;99.90
7002;DHT22;3541;53.230;10.518;2022-10-03T04:05:05;11.90;99.90
7002;DHT22;3541;53.230;10.518;2022-10-03T04:07:46;11.90;99.90
7002;DHT22;3541;53.230;10.518;2022-10-03T04:10:26;11.90;99.90
7002;DHT22;3541;53.230;10.518;2022-10-03T04:13:13;12.00;99.90
7002;DHT22;3541;53.230;10.518;2022-10-03T04:15:52;11.80;99.90
7002;DHT22;3541;53.230;10.518;2022-10-03T04:18:38;11.80;99.90
7002;DHT22;3541;53.230;10.518;2022-10-03T04:21:54;11.90;99.90
7002;DHT22;3541;53.230;10.518;2022-10-03T04:24:40;11.90;99.90
7002;DHT22;3541;53.230;10.518;2022-10-03T04:27:29;11.80;99.90
7002;DHT22;3541;53.230;10.518;2022-10-03T04:30:06;11.70;99.90
7002;DHT22;3541;53.230;10.518;2022-10-03T04:32:50;11.80;99.90
7002;DHT22;3541;53.230;10.518;2022-10-03T04:35:37;11.80;99.90
7002;DHT22;3541;53.230;10.518;2022-10-03T04:38:15;11.90;99.90
7002;DHT22;3541;53.230;10.518;2022-10-03T04:40:50;11.80;99.90
7002;DHT22;3541;53.230;10.518;2022-10-03T04:43:31;11.80;99.90
7002;DHT22;3541;53.230;10.518;2022-10-03T04:46:13;11.70;99.90
7002;DHT22;3541;53.230;10.518;2022-10-03T04:48:55;11.70;99.90
7002;DHT22;3541;53.230;10.518;2022-10-03T04:51:37;11.70;99.90
7002;DHT22;3541;53.230;10.518;2022-10-03T04:54:18;11.80;99.90
7002;DHT22;3541;53.230;10.518;2022-10-03T04:56:52;11.80;99.90
7002;DHT22;3541;53.230;10.518;2022-10-03T04:59:39;11.80;99.90
7002;DHT22;3541;53.230;10.518;2022-10-03T05:02:17;11.70;99.90
7002;DHT22;3541;53.230;10.518;2022-10-03T05:04:58;11.70;99.90
7002;DHT22;3541;53.230;10.518;2022-10-03T05:07:36;11.60;99.90
7002;DHT22;3541;53.230;10.518;2022-10-03T05:10:24;11.60;99.90
7002;DHT22;3541;53.230;10.518;2022-10-03T05:12:58;11.60;99.90
7002;DHT22;3541;53.230;10.518;2022-10-03T05:15:29;11.50;99.90
7002;DHT22;3541;53.230;10.518;2022-10-03T05:18:03;11.50;99.90
7002;DHT22;3541;53.230;10.518;2022-10-03T05:20:45;11.60;99.90
7002;DHT22;3541;53.230;10.518;2022-10-03T05:23:22;11.60;99.90
7002;DHT22;3541;53.230;10.518;2022-10-03T05:25:58;11.60;99.90
7002;DHT22;3541;53.230;10.518;2022-10-03T05:28:35;11.50;99.90
7002;DHT22;3541;53.230;10.518;2022-10-03T05:31:11;11.40;99.90
7002;DHT22;3541;53.230;10.518;2022-10-03T05:33:46;11.30;99.90
7002;DHT22;3541;53.230;10.518;2022-10-03T05:36:27;11.30;99.90
7002;DHT22;3541;53.230;10.518;2022-10-03T05:39:24;11.30;99.90
7002;DHT22;3541;53.230;10.518;2022-10-03T05:41:54;11.30;99.90
7002;DHT22;3541;53.230;10.518;2022-10-03T05:44:38;11.20;99.90
7002;DHT22;3541;53.230;10.518;2022-10-03T05:47:10;11.30;99.90
7002;DHT22;3541;53.230;10.518;2022-10-03T05:50:07;11.30;99.90
7002;DHT22;3541;53.230;10.518;2022-10-03T05:52:58;11.30;99.90
7002;DHT22;3541;53.230;10.518;2022-10-03T05:55:36;11.30;99.90
7002;DHT22;3541;53.230;10.518;2022-10-03T05:58:30;11.30;99.90
7002;DHT22;3541;53.230;10.518;2022-10-03T06:01:17;11.20;99.90
7002;DHT22;3541;53.230;10.518;2022-10-03T06:07:10;11.20;99.90
7002;DHT22;3541;53.230;10.518;2022-10-03T06:13:06;11.10;99.90
7002;DHT22;3541;53.230;10.518;2022-10-03T06:15:58;11.20;99.90
7002;DHT22;3541;53.230;10.518;2022-10-03T06:18:56;11.30;99.90
7002;DHT22;3541;53.230;10.518;2022-10-03T06:21:49;11.40;99.90
7002;DHT22;3541;53.230;10.518;2022-10-03T06:24:56;11.40;99.90
7002;DHT22;3541;53.230;10.518;2022-10-03T06:28:01;11.40;99.90
7002;DHT22;3541;53.230;10.518;2022-10-03T06:33:52;11.40;99.90
7002;DHT22;3541;53.230;10.518;2022-10-03T06:36:35;11.40;99.90
7002;DHT22;3541;53.230;10.518;2022-10-03T06:39:36;11.40;99.90
7002;DHT22;3541;53.230;10.518;2022-10-03T06:42:41;11.40;99.90
7002;DHT22;3541;53.230;10.518;2022-10-03T06:48:50;11.60;99.90
7002;DHT22;3541;53.230;10.518;2022-10-03T06:52:01;11.60;99.90
7002;DHT22;3541;53.230;10.518;2022-10-03T07:00:46;11.80;99.90
7002;DHT22;3541;53.230;10.518;2022-10-03T07:06:46;11.90;99.90
7002;DHT22;3541;53.230;10.518;2022-10-03T07:09:46;11.90;99.90
7002;DHT22;3541;53.230;10.518;2022-10-03T07:12:55;11.90;99.90
7002;DHT22;3541;53.230;10.518;2022-10-03T07:18:52;12.00;99.90
7002;DHT22;3541;53.230;10.518;2022-10-03T07:22:02;12.00;99.90
7002;DHT22;3541;53.230;10.518;2022-10-03T07:28:01;12.10;99.90
7002;DHT22;3541;53.230;10.518;2022-10-03T07:30:34;12.20;99.90
7002;DHT22;3541;53.230;10.518;2022-10-03T07:33:34;12.30;99.90
7002;DHT22;3541;53.230;10.518;2022-10-03T07:36:23;12.30;99.90
7002;DHT22;3541;53.230;10.518;2022-10-03T07:39:40;12.40;99.90
7002;DHT22;3541;53.230;10.518;2022-10-03T07:42:44;12.40;99.90
7002;DHT22;3541;53.230;10.518;2022-10-03T07:45:26;12.40;99.90
7002;DHT22;3541;53.230;10.518;2022-10-03T07:48:26;12.40;99.90
7002;DHT22;3541;53.230;10.518;2022-10-03T07:57:18;12.60;99.90
7002;DHT22;3541;53.230;10.518;2022-10-03T08:00:11;12.60;99.90
7002;DHT22;3541;53.230;10.518;2022-10-03T08:05:53;12.70;99.90
7002;DHT22;3541;53.230;10.518;2022-10-03T08:08:50;12.70;99.90
7002;DHT22;3541;53.230;10.518;2022-10-03T08:11:37;12.70;99.90
7002;DHT22;3541;53.230;10.518;2022-10-03T08:14:17;12.70;99.90
7002;DHT22;3541;53.230;10.518;2022-10-03T08:17:08;12.80;99.90
7002;DHT22;3541;53.230;10.518;2022-10-03T08:19:55;12.90;99.90
7002;DHT22;3541;53.230;10.518;2022-10-03T08:22:37;13.00;99.90
7002;DHT22;3541;53.230;10.518;2022-10-03T08:25:21;13.10;99.90
7002;DHT22;3541;53.230;10.518;2022-10-03T08:28:21;13.10;99.90
7002;DHT22;3541;53.230;10.518;2022-10-03T08:31:18;13.10;99.90
7002;DHT22;3541;53.230;10.518;2022-10-03T08:34:14;13.20;99.90
7002;DHT22;3541;53.230;10.518;2022-10-03T08:37:04;13.30;99.90
7002;DHT22;3541;53.230;10.518;2022-10-03T08:39:46;13.30;99.90
7002;DHT22;3541;53.230;10.518;2022-10-03T08:42:43;13.30;99.90
7002;DHT22;3541;53.230;10.518;2022-10-03T08:48:46;13.40;99.90
7002;DHT22;3541;53.230;10.518;2022-10-03T08:51:48;13.50;99.90
7002;DHT22;3541;53.230;10.518;2022-10-03T08:54:46;13.60;99.90
7002;DHT22;3541;53.230;10.518;2022-10-03T08:57:23;13.70;99.90
7002;DHT22;3541;53.230;10.518;2022-10-03T09:00:07;13.70;99.90
7002;DHT22;3541;53.230;10.518;2022-10-03T09:03:10;13.70;99.90
7002;DHT22;3541;53.230;10.518;2022-10-03T09:06:11;13.80;99.90
7002;DHT22;3541;53.230;10.518;2022-10-03T09:09:10;13.70;99.90
7002;DHT22;3541;53.230;10.518;2022-10-03T09:12:05;13.80;99.90
7002;DHT22;3541;53.230;10.518;2022-10-03T09:14:47;13.90;99.90
7002;DHT22;3541;53.230;10.518;2022-10-03T09:17:44;13.90;99.90
7002;DHT22;3541;53.230;10.518;2022-10-03T09:20:30;13.90;99.90
7002;DHT22;3541;53.230;10.518;2022-10-03T09:23:30;13.90;99.90
7002;DHT22;3541;53.230;10.518;2022-10-03T09:26:27;14.00;99.90
7002;DHT22;3541;53.230;10.518;2022-10-03T09:29:25;14.00;99.90
7002;DHT22;3541;53.230;10.518;2022-10-03T09:32:19;14.10;99.90
7002;DHT22;3541;53.230;10.518;2022-10-03T09:38:25;14.20;99.90
7002;DHT22;3541;53.230;10.518;2022-10-03T09:41:28;14.20;99.90
7002;DHT22;3541;53.230;10.518;2022-10-03T09:47:27;14.20;99.90
7002;DHT22;3541;53.230;10.518;2022-10-03T09:50:33;14.20;99.90
7002;DHT22;3541;53.230;10.518;2022-10-03T09:53:28;14.20;99.90
7002;DHT22;3541;53.230;10.518;2022-10-03T09:59:23;14.20;99.90
7002;DHT22;3541;53.230;10.518;2022-10-03T10:02:09;14.20;99.90
7002;DHT22;3541;53.230;10.518;2022-10-03T10:04:51;14.20;99.90
7002;DHT22;3541;53.230;10.518;2022-10-03T10:14:10;14.30;99.90
7002;DHT22;3541;53.230;10.518;2022-10-03T10:17:02;14.40;99.90
7002;DHT22;3541;53.230;10.518;2022-10-03T10:19:48;14.40;99.90
7002;DHT22;3541;53.230;10.518;2022-10-03T10:25:40;14.40;99.90
7002;DHT22;3541;53.230;10.518;2022-10-03T10:28:44;14.50;99.90
7002;DHT22;3541;53.230;10.518;2022-10-03T10:31:45;14.50;99.90
7002;DHT22;3541;53.230;10.518;2022-10-03T10:34:41;14.50;99.90
7002;DHT22;3541;53.230;10.518;2022-10-03T10:56:27;15.00;99.90
7002;DHT22;3541;53.230;10.518;2022-10-03T11:02:58;14.80;99.90
7002;DHT22;3541;53.230;10.518;2022-10-03T11:06:16;14.70;99.90
7002;DHT22;3541;53.230;10.518;2022-10-03T11:09:23;14.80;99.90
7002;DHT22;3541;53.230;10.518;2022-10-03T11:16:02;15.30;99.90
7002;DHT22;3541;53.230;10.518;2022-10-03T11:25:29;15.40;99.90
7002;DHT22;3541;53.230;10.518;2022-10-03T11:28:29;15.30;99.90
7002;DHT22;3541;53.230;10.518;2022-10-03T11:31:39;15.30;99.90
7002;DHT22;3541;53.230;10.518;2022-10-03T11:34:36;15.10;99.90
7002;DHT22;3541;53.230;10.518;2022-10-03T11:37:25;15.00;99.90
7002;DHT22;3541;53.230;10.518;2022-10-03T11:40:04;15.00;99.90
7002;DHT22;3541;53.230;10.518;2022-10-03T11:42:48;14.90;99.90
7002;DHT22;3541;53.230;10.518;2022-10-03T11:45:25;14.80;99.90
7002;DHT22;3541;53.230;10.518;2022-10-03T11:48:04;14.90;99.90
7002;DHT22;3541;53.230;10.518;2022-10-03T11:50:50;14.90;99.90
7002;DHT22;3541;53.230;10.518;2022-10-03T11:53:36;15.10;99.90
7002;DHT22;3541;53.230;10.518;2022-10-03T11:56:31;15.30;99.90
7002;DHT22;3541;53.230;10.518;2022-10-03T11:59:30;15.30;99.90
7002;DHT22;3541;53.230;10.518;2022-10-03T12:02:11;15.30;99.90
7002;DHT22;3541;53.230;10.518;2022-10-03T12:04:46;15.40;99.90
7002;DHT22;3541;53.230;10.518;2022-10-03T12:07:20;15.60;99.90
7002;DHT22;3541;53.230;10.518;2022-10-03T12:10:16;15.90;99.90
7002;DHT22;3541;53.230;10.518;2022-10-03T12:12:50;15.70;99.90
7002;DHT22;3541;53.230;10.518;2022-10-03T12:15:25;15.60;99.90
7002;DHT22;3541;53.230;10.518;2022-10-03T12:18:02;15.60;99.90
7002;DHT22;3541;53.230;10.518;2022-10-03T12:20:38;15.50;99.90
7002;DHT22;3541;53.230;10.518;2022-10-03T12:23:19;15.40;99.90
7002;DHT22;3541;53.230;10.518;2022-10-03T12:25:51;15.30;99.90
7002;DHT22;3541;53.230;10.518;2022-10-03T12:28:21;15.30;99.90
7002;DHT22;3541;53.230;10.518;2022-10-03T12:30:53;15.30;99.90
7002;DHT22;3541;53.230;10.518;2022-10-03T12:33:36;15.30;99.90
7002;DHT22;3541;53.230;10.518;2022-10-03T12:36:10;15.40;99.90
7002;DHT22;3541;53.230;10.518;2022-10-03T12:38:52;15.40;99.90
7002;DHT22;3541;53.230;10.518;2022-10-03T12:41:36;15.40;99.90
7002;DHT22;3541;53.230;10.518;2022-10-03T12:44:19;15.30;99.90
7002;DHT22;3541;53.230;10.518;2022-10-03T12:46:59;15.30;99.90
7002;DHT22;3541;53.230;10.518;2022-10-03T12:49:45;15.30;99.90
7002;DHT22;3541;53.230;10.518;2022-10-03T12:52:19;15.30;99.90
7002;DHT22;3541;53.230;10.518;2022-10-03T12:54:51;15.30;99.90
7002;DHT22;3541;53.230;10.518;2022-10-03T12:57:38;15.30;99.90
7002;DHT22;3541;53.230;10.518;2022-10-03T13:00:17;15.40;99.90
7002;DHT22;3541;53.230;10.518;2022-10-03T13:03:07;15.40;99.90
7002;DHT22;3541;53.230;10.518;2022-10-03T13:05:50;15.60;99.90
7002;DHT22;3541;53.230;10.518;2022-10-03T13:08:33;16.00;99.90
7002;DHT22;3541;53.230;10.518;2022-10-03T13:11:19;16.10;99.90
7002;DHT22;3541;53.230;10.518;2022-10-03T13:14:07;16.00;99.90
7002;DHT22;3541;53.230;10.518;2022-10-03T13:16:47;16.00;99.90
7002;DHT22;3541;53.230;10.518;2022-10-03T13:19:17;15.90;99.90
7002;DHT22;3541;53.230;10.518;2022-10-03T13:22:02;16.00;99.90
7002;DHT22;3541;53.230;10.518;2022-10-03T13:24:37;16.10;99.90
7002;DHT22;3541;53.230;10.518;2022-10-03T13:27:16;16.00;99.90
7002;DHT22;3541;53.230;10.518;2022-10-03T13:29:45;15.90;99.90
7002;DHT22;3541;53.230;10.518;2022-10-03T13:32:27;15.80;99.90
7002;DHT22;3541;53.230;10.518;2022-10-03T13:35:00;15.80;99.90
7002;DHT22;3541;53.230;10.518;2022-10-03T13:38:18;15.70;99.90
7002;DHT22;3541;53.230;10.518;2022-10-03T13:40:54;15.70;99.90
7002;DHT22;3541;53.230;10.518;2022-10-03T13:43:27;15.70;99.90
7002;DHT22;3541;53.230;10.518;2022-10-03T13:46:05;15.70;99.90
7002;DHT22;3541;53.230;10.518;2022-10-03T13:48:36;15.70;99.90
7002;DHT22;3541;53.230;10.518;2022-10-03T13:51:09;15.80;99.90
7002;DHT22;3541;53.230;10.518;2022-10-03T13:53:51;15.80;99.90
7002;DHT22;3541;53.230;10.518;2022-10-03T13:59:23;15.80;99.90
7002;DHT22;3541;53.230;10.518;2022-10-03T14:02:02;15.80;99.90
7002;DHT22;3541;53.230;10.518;2022-10-03T14:04:40;15.70;99.90
7002;DHT22;3541;53.230;10.518;2022-10-03T14:07:14;15.70;99.90
7002;DHT22;3541;53.230;10.518;2022-10-03T14:09:59;15.70;99.90
7002;DHT22;3541;53.230;10.518;2022-10-03T14:12:38;15.70;99.90
7002;DHT22;3541;53.230;10.518;2022-10-03T14:15:47;15.70;99.90
7002;DHT22;3541;53.230;10.518;2022-10-03T14:18:28;15.60;99.90
7002;DHT22;3541;53.230;10.518;2022-10-03T14:21:42;15.60;99.90
7002;DHT22;3541;53.230;10.518;2022-10-03T14:24:24;15.60;99.90
7002;DHT22;3541;53.230;10.518;2022-10-03T14:26:58;15.50;99.90
7002;DHT22;3541;53.230;10.518;2022-10-03T14:29:35;15.50;99.90
7002;DHT22;3541;53.230;10.518;2022-10-03T14:32:08;15.50;99.90
7002;DHT22;3541;53.230;10.518;2022-10-03T14:34:49;15.50;99.90
7002;DHT22;3541;53.230;10.518;2022-10-03T14:37:24;15.50;99.90
7002;DHT22;3541;53.230;10.518;2022-10-03T14:40:02;15.50;99.90
7002;DHT22;3541;53.230;10.518;2022-10-03T14:42:50;15.60;99.90
7002;DHT22;3541;53.230;10.518;2022-10-03T14:45:23;15.50;99.90
7002;DHT22;3541;53.230;10.518;2022-10-03T14:47:53;15.60;99.90
7002;DHT22;3541;53.230;10.518;2022-10-03T14:50:23;15.60;99.90
7002;DHT22;3541;53.230;10.518;2022-10-03T14:52:55;15.60;99.90
7002;DHT22;3541;53.230;10.518;2022-10-03T14:55:29;15.70;99.90
7002;DHT22;3541;53.230;10.518;2022-10-03T14:58:01;15.90;99.90
7002;DHT22;3541;53.230;10.518;2022-10-03T15:00:37;16.00;99.90
7002;DHT22;3541;53.230;10.518;2022-10-03T15:03:22;16.00;99.90
7002;DHT22;3541;53.230;10.518;2022-10-03T15:06:18;16.00;99.90
7002;DHT22;3541;53.230;10.518;2022-10-03T15:08:48;16.00;99.90
7002;DHT22;3541;53.230;10.518;2022-10-03T15:11:22;16.00;99.90
7002;DHT22;3541;53.230;10.518;2022-10-03T15:13:54;16.00;99.90
7002;DHT22;3541;53.230;10.518;2022-10-03T15:16:22;16.00;99.90
7002;DHT22;3541;53.230;10.518;2022-10-03T15:18:52;16.00;99.90
7002;DHT22;3541;53.230;10.518;2022-10-03T15:21:20;15.90;99.90
7002;DHT22;3541;53.230;10.518;2022-10-03T15:23:53;15.80;99.90
7002;DHT22;3541;53.230;10.518;2022-10-03T15:26:22;15.80;99.90
7002;DHT22;3541;53.230;10.518;2022-10-03T15:28:52;15.70;99.90
7002;DHT22;3541;53.230;10.518;2022-10-03T15:31:27;15.70;99.90
7002;DHT22;3541;53.230;10.518;2022-10-03T15:33:59;15.60;99.90
7002;DHT22;3541;53.230;10.518;2022-10-03T15:36:31;15.50;99.90
7002;DHT22;3541;53.230;10.518;2022-10-03T15:39:05;15.60;99.90
7002;DHT22;3541;53.230;10.518;2022-10-03T15:41:35;15.50;99.90
7002;DHT22;3541;53.230;10.518;2022-10-03T15:44:14;15.50;99.90
7002;DHT22;3541;53.230;10.518;2022-10-03T15:46:44;15.50;99.90
7002;DHT22;3541;53.230;10.518;2022-10-03T15:49:18;15.50;99.90
7002;DHT22;3541;53.230;10.518;2022-10-03T15:51:46;15.50;99.90
7002;DHT22;3541;53.230;10.518;2022-10-03T15:54:18;15.40;99.90
7002;DHT22;3541;53.230;10.518;2022-10-03T15:56:49;15.40;99.90
7002;DHT22;3541;53.230;10.518;2022-10-03T15:59:21;15.40;99.90
7002;DHT22;3541;53.230;10.518;2022-10-03T16:01:49;15.40;99.90
7002;DHT22;3541;53.230;10.518;2022-10-03T16:04:22;15.40;99.90
7002;DHT22;3541;53.230;10.518;2022-10-03T16:06:57;15.30;99.90
7002;DHT22;3541;53.230;10.518;2022-10-03T16:09:31;15.30;99.90
7002;DHT22;3541;53.230;10.518;2022-10-03T16:12:12;15.30;99.90
7002;DHT22;3541;53.230;10.518;2022-10-03T16:14:43;15.20;99.90
7002;DHT22;3541;53.230;10.518;2022-10-03T16:17:15;15.20;99.90
7002;DHT22;3541;53.230;10.518;2022-10-03T16:19:51;15.20;99.90
7002;DHT22;3541;53.230;10.518;2022-10-03T16:22:21;15.20;99.90
7002;DHT22;3541;53.230;10.518;2022-10-03T16:25:00;15.20;99.90
7002;DHT22;3541;53.230;10.518;2022-10-03T16:27:30;15.10;99.90
7002;DHT22;3541;53.230;10.518;2022-10-03T16:30:13;15.10;99.90
7002;DHT22;3541;53.230;10.518;2022-10-03T16:32:48;15.00;99.90
7002;DHT22;3541;53.230;10.518;2022-10-03T16:35:33;15.00;99.90
7002;DHT22;3541;53.230;10.518;2022-10-03T16:38:01;15.00;99.90
7002;DHT22;3541;53.230;10.518;2022-10-03T16:40:30;15.00;99.90
7002;DHT22;3541;53.230;10.518;2022-10-03T16:42:58;15.00;99.90
7002;DHT22;3541;53.230;10.518;2022-10-03T16:45:39;15.00;99.90
7002;DHT22;3541;53.230;10.518;2022-10-03T16:48:11;15.00;99.90
7002;DHT22;3541;53.230;10.518;2022-10-03T16:50:56;15.10;99.90
7002;DHT22;3541;53.230;10.518;2022-10-03T16:53:24;15.00;99.90
7002;DHT22;3541;53.230;10.518;2022-10-03T16:55:53;15.00;99.90
7002;DHT22;3541;53.230;10.518;2022-10-03T16:58:24;15.00;99.90
7002;DHT22;3541;53.230;10.518;2022-10-03T17:00:56;15.00;99.90
7002;DHT22;3541;53.230;10.518;2022-10-03T17:03:28;15.00;99.90
7002;DHT22;3541;53.230;10.518;2022-10-03T17:05:58;15.00;99.90
7002;DHT22;3541;53.230;10.518;2022-10-03T17:08:30;14.90;99.90
7002;DHT22;3541;53.230;10.518;2022-10-03T17:11:01;15.00;99.90
7002;DHT22;3541;53.230;10.518;2022-10-03T17:13:40;15.00;99.90
7002;DHT22;3541;53.230;10.518;2022-10-03T17:16:12;15.00;99.90
7002;DHT22;3541;53.230;10.518;2022-10-03T17:18:42;14.90;99.90
7002;DHT22;3541;53.230;10.518;2022-10-03T17:21:19;14.90;99.90
7002;DHT22;3541;53.230;10.518;2022-10-03T17:23:55;14.90;99.90
7002;DHT22;3541;53.230;10.518;2022-10-03T17:26:27;14.80;99.90
7002;DHT22;3541;53.230;10.518;2022-10-03T17:29:03;14.80;99.90
7002;DHT22;3541;53.230;10.518;2022-10-03T17:31:40;14.80;99.90
7002;DHT22;3541;53.230;10.518;2022-10-03T17:34:12;14.70;99.90
7002;DHT22;3541;53.230;10.518;2022-10-03T17:37:05;14.70;99.90
7002;DHT22;3541;53.230;10.518;2022-10-03T17:39:42;14.70;99.90
7002;DHT22;3541;53.230;10.518;2022-10-03T17:42:22;14.70;99.90
7002;DHT22;3541;53.230;10.518;2022-10-03T17:44:56;14.70;99.90
7002;DHT22;3541;53.230;10.518;2022-10-03T17:47:32;14.70;99.90
7002;DHT22;3541;53.230;10.518;2022-10-03T17:50:05;14.70;99.90
7002;DHT22;3541;53.230;10.518;2022-10-03T17:52:38;14.70;99.90
7002;DHT22;3541;53.230;10.518;2022-10-03T17:55:06;14.60;99.90
7002;DHT22;3541;53.230;10.518;2022-10-03T17:57:42;14.60;99.90
7002;DHT22;3541;53.230;10.518;2022-10-03T18:00:17;14.50;99.90
7002;DHT22;3541;53.230;10.518;2022-10-03T18:02:52;14.50;99.90
7002;DHT22;3541;53.230;10.518;2022-10-03T18:05:25;14.40;99.90
7002;DHT22;3541;53.230;10.518;2022-10-03T18:07:53;14.50;99.90
7002;DHT22;3541;53.230;10.518;2022-10-03T18:10:24;14.50;99.90
7002;DHT22;3541;53.230;10.518;2022-10-03T18:12:54;14.40;99.90
7002;DHT22;3541;53.230;10.518;2022-10-03T18:15:53;14.40;99.90
7002;DHT22;3541;53.230;10.518;2022-10-03T18:18:45;14.40;99.90
7002;DHT22;3541;53.230;10.518;2022-10-03T18:21:17;14.50;99.90
7002;DHT22;3541;53.230;10.518;2022-10-03T18:24:05;14.40;99.90
7002;DHT22;3541;53.230;10.518;2022-10-03T18:26:40;14.40;99.90
7002;DHT22;3541;53.230;10.518;2022-10-03T18:29:20;14.40;99.90
7002;DHT22;3541;53.230;10.518;2022-10-03T18:31:54;14.40;99.90
7002;DHT22;3541;53.230;10.518;2022-10-03T18:34:27;14.40;99.90
7002;DHT22;3541;53.230;10.518;2022-10-03T18:37:16;14.40;99.90
7002;DHT22;3541;53.230;10.518;2022-10-03T18:40:04;14.40;99.90
7002;DHT22;3541;53.230;10.518;2022-10-03T18:42:37;14.40;99.90
7002;DHT22;3541;53.230;10.518;2022-10-03T18:45:05;14.40;99.90
7002;DHT22;3541;53.230;10.518;2022-10-03T18:47:34;14.40;99.90
7002;DHT22;3541;53.230;10.518;2022-10-03T18:50:10;14.30;99.90
7002;DHT22;3541;53.230;10.518;2022-10-03T18:52:45;14.30;99.90
7002;DHT22;3541;53.230;10.518;2022-10-03T18:55:17;14.30;99.90
7002;DHT22;3541;53.230;10.518;2022-10-03T18:57:52;14.30;99.90
7002;DHT22;3541;53.230;10.518;2022-10-03T19:00:24;14.20;99.90
7002;DHT22;3541;53.230;10.518;2022-10-03T19:02:54;14.30;99.90
7002;DHT22;3541;53.230;10.518;2022-10-03T19:05:28;14.30;99.90
7002;DHT22;3541;53.230;10.518;2022-10-03T19:08:01;14.20;99.90